Accueil
METAR-TAF:

METAR-TAF

Aéroports :

RAF Coningsby

Coningsby, Angleterre

latitude: 53-05N, longitude: 000-10W, altitude: 7 m

Observation

Le bulletin a été fait il y a 24 minutes, à 23:50 UTC
Vent 6 kt de nord/nord-ouest
Température 8°C
Humidité 76%
Pression 1033 hPa
Visibilité 10 km ou plus
Nuages fragmentés à une hauteur de 4200 ft

METAR: EGXC 262350Z 33006KT 9999 BKN042 08/04 Q1033 BLU

Heure: 00:14 (00:14 UTC)

Prévision

Le bulletin a été fait il y a 1 heure et 50 minutes, à 22:24 UTC
Prévision valable du 27 à 00 UTC au 27 à 18 UTC
Vent 6 kt de ouest/nord-ouest
Visibilité 10 km ou plus
Nuages fragmentés à une hauteur de 4000 ft

TAF: EGXC 262224Z 2700/2718 30006KT 9999 BKN040

Observations et prévisions météorologiques de plus de 4000 aéroports (messages METAR et TAF).

Les stations disponibles sont représentées par des disques jaunes et rouges sur la carte.

Passer la souris dessus pour voir le nom de la station.

Cliquer dessus pour voir les observations et prévisions météorologiques.

Pour changer de carte: cliquez sur les boutons verts avec une croix noire pour zoomer, sur le bouton vert avec un tiret pour effectuer un zoom arrière, ou sur les flèches vertes pour les cartes adjacentes.


METAR-TAF: